Overview Statistics Trail Chart Weather Telemetry Raw packets
 

This is the latest recevied weather packets stored in our database for station/object ea1bqo-1. If no packets are shown the sender has not sent any weather packets the latest 10 day(s).

<< 8 9 10 11 12 13 14 >>
Time Temp. Humidity Pressure Rain* Wind** Luminosity Snow
1788482639 17.22° C 52% 1020.4 hPa 0 mm - - -
1788482099 17.22° C 50% 1020.4 hPa 0 mm - - -
1788481559 17.78° C 48% 1020.3 hPa 0 mm - - -
1788481019 17.78° C 47% 1020.3 hPa 0 mm - - -
1788480479 18.33° C 44% 1020.2 hPa 0 mm - - -
1788479939 18.33° C 44% 1020.2 hPa 0 mm - - -
1788479399 18.33° C 45% 1020.2 hPa 0 mm - - -
1788478859 18.33° C 44% 1020.1 hPa 0 mm - - -
1788478319 18.89° C 42% 1020.1 hPa 0 mm - - -
1788477779 19.44° C 41% 1020.1 hPa 0 mm - - -
1788477239 19.44° C 40% 1020.1 hPa 0 mm - - -
1788476699 18.89° C 43% 1020 hPa 0 mm - - -
1788476159 18.89° C 43% 1020.1 hPa 0 mm - - -
1788475619 18.89° C 44% 1020.1 hPa 0 mm - - -
1788475079 19.44° C 41% 1020.1 hPa 0 mm - - -
1788474539 20° C 38% 1020.1 hPa 0 mm - - -
1788473999 20° C 37% 1020.1 hPa 0 mm - - -
1788473459 20° C 37% 1019.9 hPa 0 mm - - -
1788472919 21.11° C 34% 1019.9 hPa 0 mm - - -
1788472379 21.11° C 32% 1019.9 hPa 0 mm - - -
1788471839 21.67° C 30% 1019.7 hPa 0 mm - - -
1788471299 21.67° C 30% 1020 hPa 0 mm - - -
1788470759 21.67° C 31% 1020 hPa 0 mm - - -
1788470219 21.67° C 32% 1020 hPa 0 mm - - -
1788469679 21.67° C 32% 1020 hPa 0 mm - - -

* Rain latest hour (hover to see other rain measurements)
** Current wind speed in m/s (hover to see current wind gust speed)